Time;durP1;ratioP1;P1;durP2;ratioP2;P2;SDS_P1;SDS_P2;PMS_P1;PMS_P2;Temp;Humidity;BMP_temperature;BMP_pressure;BME280_temperature;BME280_humidity;BME280_pressure;Samples;Min_cycle;Max_cycle;Signal;HPM_P1;HPM_P2
2022/01/19 00:02:19;;;;;;;8.02;4.50;;;;;;;-2.87;63.76;96532.72;4941135;28;20528;-65
2022/01/19 00:05:22;;;;;;;7.57;5.30;;;;;;;-2.89;63.53;96527.66;4989344;28;20058;-67
2022/01/19 00:08:19;;;;;;;10.75;4.50;;;;;;;-2.86;63.27;96529.38;4960811;28;20138;-66
2022/01/19 00:11:01;;;;;;;9.90;5.40;;;;;;;-2.90;63.59;96543.66;4988783;28;20674;-65
2022/01/19 00:13:57;;;;;;;;;;;;;;;-2.84;63.42;96541.19;4989712;28;20651;-66
2022/01/19 00:16:44;;;;;;;9.35;5.57;;;;;;;-3.04;62.93;96503.06;4989264;28;19924;-65
2022/01/19 00:19:33;;;;;;;6.43;4.70;;;;;;;-2.87;62.56;96540.31;4994529;28;20045;-66
2022/01/19 00:22:19;;;;;;;11.52;5.43;;;;;;;-2.91;62.93;96544.47;5011007;28;20476;-65
2022/01/19 00:24:58;;;;;;;7.47;4.93;;;;;;;-2.99;63.05;96551.91;4959950;28;20042;-65
2022/01/19 00:27:42;;;;;;;;;;;;;;;;;;;;;
2022/01/19 00:30:35;;;;;;;10.07;5.15;;;;;;;-2.77;62.22;96563.19;4976008;28;20052;-66
2022/01/19 00:33:38;;;;;;;8.93;5.20;;;;;;;-2.78;62.41;96563.16;4994619;28;20056;-66
2022/01/19 00:36:26;;;;;;;11.95;5.80;;;;;;;-2.75;62.20;96563.22;4991687;28;20488;-65
2022/01/19 00:39:29;;;;;;;9.05;5.40;;;;;;;-2.87;62.00;96543.69;4976174;28;20428;-67
2022/01/19 00:42:07;;;;;;;8.10;5.45;;;;;;;-2.80;61.58;96542.09;5001416;28;20501;-65
2022/01/19 00:45:02;;;;;;;8.82;4.50;;;;;;;-2.64;61.73;96578.50;5010866;28;20447;-64
2022/01/19 00:47:28;;;;;;;9.75;4.88;;;;;;;-2.68;61.84;96566.66;4993019;28;20417;-65
2022/01/19 00:50:38;;;;;;;8.23;4.47;;;;;;;-2.62;61.73;96574.34;5011040;28;20034;-66
2022/01/19 00:53:24;;;;;;;10.70;5.38;;;;;;;-2.67;61.84;96565.81;4975305;28;20050;-66
2022/01/19 00:55:57;;;;;;;10.02;5.75;;;;;;;-2.81;61.88;96574.06;5007904;28;20145;-65
2022/01/19 00:59:00;;;;;;;11.02;6.60;;;;;;;-2.73;62.31;96612.06;5023731;28;20082;-64
2022/01/19 01:01:31;;;;;;;8.73;5.60;;;;;;;-2.80;62.86;96601.00;4995607;28;20057;-65
2022/01/19 01:04:29;;;;;;;8.02;4.70;;;;;;;-2.77;62.56;96611.16;5006139;28;20556;-66
2022/01/19 01:07:07;;;;;;;8.43;3.72;;;;;;;-2.70;61.74;96607.03;5010344;28;20517;-66
2022/01/19 01:09:59;;;;;;;10.82;4.47;;;;;;;-2.78;62.35;96604.41;5009163;28;20044;-65
2022/01/19 01:13:17;;;;;;;9.23;5.30;;;;;;;-2.81;62.41;96619.50;5009971;28;20693;-66
2022/01/19 01:16:17;;;;;;;7.10;4.00;;;;;;;-2.81;63.06;96613.63;4975419;28;20046;-67
2022/01/19 01:18:52;;;;;;;7.20;4.63;;;;;;;-2.89;62.89;96593.28;4974898;28;20065;-65
2022/01/19 01:21:24;;;;;;;9.10;5.28;;;;;;;-2.86;62.80;96598.41;5009882;28;20552;-65
2022/01/19 01:24:02;;;;;;;7.70;3.95;;;;;;;-2.93;63.07;96588.22;4987159;28;20054;-66
2022/01/19 01:26:56;;;;;;;9.07;4.78;;;;;;;-2.90;62.73;96600.84;4955433;28;20035;-67
2022/01/19 01:29:52;;;;;;;;;;;;;;;;;;;;;
2022/01/19 01:32:56;;;;;;;11.52;5.93;;;;;;;-3.03;63.52;96575.44;4939520;28;20070;-66
2022/01/19 01:35:54;;;;;;;10.48;5.40;;;;;;;-3.07;63.86;96583.78;4982866;28;20425;-67
2022/01/19 01:38:22;;;;;;;7.00;4.28;;;;;;;-3.06;63.85;96579.59;4987999;28;20041;-65
2022/01/19 01:41:03;;;;;;;13.02;6.40;;;;;;;-3.21;63.85;96552.44;4987672;28;20250;-65
2022/01/19 01:43:33;;;;;;;16.33;6.10;;;;;;;-3.09;63.62;96569.44;4987856;28;20474;-67
2022/01/19 01:46:35;;;;;;;15.57;6.90;;;;;;;-3.26;63.45;96539.75;4986937;28;20037;-68
2022/01/19 01:49:38;;;;;;;;;;;;;;;;;;;;;
2022/01/19 01:55:10;;;;;;;;;;;;;;;;;;;;;
2022/01/19 01:58:01;;;;;;;11.43;6.75;;;;;;;-3.31;64.65;96561.56;4953984;28;20034;-66
2022/01/19 02:00:42;;;;;;;11.85;5.82;;;;;;;-3.29;64.63;96552.31;4986653;28;20050;-66
2022/01/19 02:03:14;;;;;;;7.55;4.68;;;;;;;-3.31;64.58;96546.41;4971010;28;20035;-66
2022/01/19 02:06:07;;;;;;;9.32;5.05;;;;;;;-3.17;64.36;96547.44;4970523;28;20579;-67
2022/01/19 02:09:14;;;;;;;9.48;5.47;;;;;;;-3.19;64.10;96539.03;4986193;28;20045;-65
2022/01/19 02:21:56;;;;;;;;;;;;;;;;;;;;;
2022/01/19 02:24:48;;;;;;;8.40;5.10;;;;;;;-3.13;63.59;96518.09;5009082;28;20046;-66
2022/01/19 02:31:09;;;;;;;16.65;5.45;;;;;;;-3.05;62.74;96500.50;5009390;28;20350;-63
2022/01/19 02:42:51;;;;;;;;;;;;;;;;;;;;;
2022/01/19 02:52:22;;;;;;;7.13;4.80;;;;;;;-3.13;62.93;96523.13;5008967;28;20048;-67
2022/01/19 02:55:05;;;;;;;9.45;5.88;;;;;;;-3.32;63.63;96522.00;4933794;29;20190;-67
2022/01/19 02:58:02;;;;;;;;;;;;;;;;;;;;;
2022/01/19 03:09:57;;;;;;;12.32;6.15;;;;;;;-3.47;63.42;96497.41;4928353;29;20123;-66
2022/01/19 03:12:28;;;;;;;12.48;5.43;;;;;;;-3.29;63.49;96514.47;4896040;29;20092;-67
2022/01/19 03:15:03;;;;;;;;;;;;;;;-3.08;62.85;96515.59;4928882;29;20131;-66
2022/01/19 03:17:41;;;;;;;9.43;5.20;;;;;;;-3.03;62.58;96519.06;4912035;29;19923;-65
2022/01/19 03:20:26;;;;;;;5.50;4.30;;;;;;;-3.06;62.50;96517.34;4912497;29;20076;-65
2022/01/19 03:23:21;;;;;;;7.60;4.63;;;;;;;-3.12;62.90;96514.72;4903673;29;20058;-64
2022/01/19 03:26:24;;;;;;;10.90;5.28;;;;;;;-3.08;62.71;96524.03;4941416;28;20057;-66
2022/01/19 03:29:00;;;;;;;6.18;3.92;;;;;;;-3.07;62.83;96517.31;4947005;28;20065;-65
2022/01/19 03:31:26;;;;;;;9.85;4.68;;;;;;;-3.16;62.14;96508.78;4994735;28;20031;-66
2022/01/19 03:34:32;;;;;;;;;;;;;;;;;;;;;
2022/01/19 03:37:30;;;;;;;9.57;5.13;;;;;;;-3.19;62.56;96530.59;4942150;28;20037;-66
2022/01/19 03:40:22;;;;;;;10.75;5.55;;;;;;;-3.44;62.25;96499.09;4986993;28;20041;-65
2022/01/19 03:43:05;;;;;;;9.35;5.20;;;;;;;-3.15;61.79;96535.72;4960151;28;20057;-66
2022/01/19 03:45:56;;;;;;;6.95;4.07;;;;;;;-3.02;61.44;96526.63;4995223;28;20105;-65
2022/01/19 03:51:24;;;;;;;9.77;4.32;;;;;;;-2.99;61.40;96516.59;4994659;28;20042;-66
2022/01/19 03:54:05;;;;;;;12.32;5.22;;;;;;;-3.14;61.09;96507.13;4959964;28;20053;-65
2022/01/19 03:56:52;;;;;;;10.60;4.60;;;;;;;-3.05;61.55;96536.72;4994713;28;20027;-65
2022/01/19 03:59:35;;;;;;;7.60;3.95;;;;;;;-3.11;60.75;96513.06;4998038;28;20184;-66
2022/01/19 04:02:48;;;;;;;5.28;3.25;;;;;;;-3.06;61.17;96519.88;5014358;28;20033;-66
2022/01/19 04:06:01;;;;;;;6.30;3.92;;;;;;;-3.04;60.97;96535.03;5015678;28;20580;-64
2022/01/19 04:08:54;;;;;;;9.27;4.45;;;;;;;-3.06;61.43;96534.16;5012361;28;20493;-67
2022/01/19 04:11:57;;;;;;;;;;;;;;;;;;;;;
2022/01/19 04:14:58;;;;;;;;;;;;;;;;;;;;;
2022/01/19 04:17:54;;;;;;;9.82;3.50;;;;;;;-3.01;61.02;96540.13;5014055;28;20071;-66
2022/01/19 04:20:41;;;;;;;7.97;3.80;;;;;;;-3.10;60.92;96530.72;5011894;28;20125;-64
2022/01/19 04:23:16;;;;;;;6.70;4.45;;;;;;;-3.01;60.63;96548.53;5010436;28;20046;-66
2022/01/19 04:26:20;;;;;;;10.45;4.35;;;;;;;-3.08;61.09;96554.34;5014056;28;20030;-66
2022/01/19 04:29:09;;;;;;;6.85;2.97;;;;;;;-3.06;61.07;96560.25;5013929;28;20469;-64
2022/01/19 04:31:55;;;;;;;10.73;5.28;;;;;;;-2.99;61.27;96568.75;5011728;28;20668;-65
2022/01/19 04:34:59;;;;;;;8.63;3.75;;;;;;;-3.01;61.11;96565.38;5013677;28;20046;-65
2022/01/19 05:05:05;;;;;;;;;;;;;;;;;;;;;
2022/01/19 05:13:26;;;;;;;14.35;6.55;;;;;;;-2.92;60.58;96590.72;4991170;28;20541;-65
2022/01/19 05:16:19;;;;;;;10.80;5.63;;;;;;;-2.93;60.83;96588.22;4990383;28;20145;-65
2022/01/19 05:18:57;;;;;;;11.38;6.88;;;;;;;-2.85;60.52;96596.75;4986084;28;20044;-65
2022/01/19 05:21:48;;;;;;;11.77;6.78;;;;;;;-3.29;60.37;96536.34;4989907;28;20061;-65
2022/01/19 05:24:46;;;;;;;13.60;6.50;;;;;;;-2.98;61.10;96611.69;4990523;28;20104;-65
2022/01/19 05:27:37;;;;;;;10.85;7.30;;;;;;;-2.84;61.01;96608.53;4990672;28;20042;-67
2022/01/19 05:30:04;;;;;;;13.25;6.93;;;;;;;-2.90;60.90;96609.28;4980979;28;20390;-66
2022/01/19 05:32:55;;;;;;;11.45;5.78;;;;;;;-2.88;61.05;96609.31;4989655;28;20065;-67
2022/01/19 05:35:59;;;;;;;8.40;4.10;;;;;;;-3.01;60.49;96595.66;4990120;28;20127;-66
2022/01/19 05:38:26;;;;;;;10.80;6.38;;;;;;;-3.11;60.96;96591.31;4988061;28;20143;-65
2022/01/19 05:41:02;;;;;;;;;;;;;;;;;;;;;
2022/01/19 05:43:57;;;;;;;11.65;6.78;;;;;;;-2.98;61.15;96633.56;4990238;28;20428;-65
2022/01/19 05:46:26;;;;;;;10.93;7.45;;;;;;;-2.96;61.16;96636.94;4987816;28;20852;-66
2022/01/19 05:49:23;;;;;;;;;;;;;;;;;;;;;
2022/01/19 05:52:20;;;;;;;12.23;6.68;;;;;;;-3.20;61.39;96613.03;4971156;28;20445;-66
2022/01/19 05:55:00;;;;;;;9.95;6.15;;;;;;;-3.19;61.71;96629.84;4987420;28;20042;-67
2022/01/19 05:57:45;;;;;;;12.18;6.22;;;;;;;-3.09;62.09;96623.28;4990219;28;20022;-64
2022/01/19 06:00:14;;;;;;;10.10;6.18;;;;;;;-2.96;62.18;96659.66;4967270;28;20081;-66
2022/01/19 06:03:10;;;;;;;;;;;;;;;;;;;;;
2022/01/19 06:05:38;;;;;;;12.90;6.68;;;;;;;-2.94;61.98;96642.88;4955694;28;20420;-64
2022/01/19 06:08:40;;;;;;;8.38;5.88;;;;;;;-2.96;62.28;96642.84;4989756;28;20044;-65
2022/01/19 06:11:51;;;;;;;11.88;6.40;;;;;;;-2.93;62.82;96647.09;4988085;28;20030;-64
2022/01/19 06:15:00;;;;;;;13.25;7.65;;;;;;;-2.92;62.99;96650.47;4984427;28;20509;-66
2022/01/19 06:17:27;;;;;;;13.43;7.25;;;;;;;-2.93;62.88;96657.19;4941712;28;20094;-66
2022/01/19 06:20:00;;;;;;;10.77;6.20;;;;;;;-2.89;62.63;96658.94;4988899;28;20113;-65
2022/01/19 06:22:39;;;;;;;8.48;6.05;;;;;;;-2.86;62.98;96661.50;4989064;28;20117;-66
2022/01/19 06:25:09;;;;;;;17.38;8.27;;;;;;;-2.82;63.15;96665.78;4986498;28;20045;-64
2022/01/19 06:27:42;;;;;;;8.27;5.63;;;;;;;-2.85;63.56;96669.97;4988730;28;20037;-64
2022/01/19 06:30:22;;;;;;;14.05;7.18;;;;;;;-2.89;63.71;96658.94;4987801;28;20041;-65
2022/01/19 06:32:52;;;;;;;10.25;6.55;;;;;;;-2.90;64.36;96667.34;4988221;28;20034;-65
2022/01/19 06:35:18;;;;;;;12.20;8.07;;;;;;;-2.84;63.95;96679.22;4985086;28;20038;-64
2022/01/19 06:37:45;;;;;;;14.20;9.23;;;;;;;-2.78;63.58;96654.06;4986901;28;20811;-65
2022/01/19 06:40:25;;;;;;;14.88;9.70;;;;;;;-2.61;62.95;96672.84;4985807;28;20041;-62
2022/01/19 06:43:08;;;;;;;14.75;7.88;;;;;;;-2.49;63.10;96673.84;4985698;28;20104;-63
2022/01/19 06:45:42;;;;;;;18.60;8.55;;;;;;;-2.67;62.69;96627.28;4964296;28;20344;-63
2022/01/19 06:48:21;;;;;;;20.58;11.30;;;;;;;-2.28;62.46;96674.16;4997119;28;20041;-62
2022/01/19 06:50:54;;;;;;;11.88;6.40;;;;;;;-2.29;62.47;96676.66;5000120;28;20038;-65
2022/01/19 06:53:35;;;;;;;14.82;8.75;;;;;;;-2.24;62.71;96677.56;5002791;28;20038;-69
2022/01/19 06:56:08;;;;;;;;;;;;;;;-2.23;62.72;96675.06;4998320;28;20925;-65
2022/01/19 06:58:47;;;;;;;11.23;7.45;;;;;;;-2.27;62.69;96675.84;4997312;28;20005;-67
2022/01/19 07:01:32;;;;;;;14.30;7.88;;;;;;;-2.43;62.89;96636.91;5012927;28;20559;-64
2022/01/19 07:04:14;;;;;;;;;;;;;;;;;;;;;
2022/01/19 07:07:02;;;;;;;14.43;6.90;;;;;;;-2.11;63.32;96668.47;5018126;28;20022;-62
2022/01/19 07:09:30;;;;;;;11.05;6.65;;;;;;;-2.16;62.80;96663.38;4970083;28;20576;-64
2022/01/19 07:11:57;;;;;;;13.98;10.25;;;;;;;-2.06;62.80;96644.09;5014525;28;20060;-62
2022/01/19 07:14:27;;;;;;;9.50;6.72;;;;;;;-2.15;62.94;96624.59;5008150;28;20371;-62
2022/01/19 07:16:53;;;;;;;13.65;7.95;;;;;;;-1.92;63.22;96645.13;5019934;28;20048;-64
2022/01/19 07:19:26;;;;;;;14.98;8.05;;;;;;;-1.82;62.04;96646.09;5018804;28;20742;-64
2022/01/19 07:21:52;;;;;;;17.83;8.57;;;;;;;-2.02;62.68;96615.50;5012233;28;20736;-64
2022/01/19 07:24:18;;;;;;;15.55;8.55;;;;;;;-1.96;63.54;96620.63;5005899;28;20046;-63
2022/01/19 07:26:47;;;;;;;10.90;7.85;;;;;;;-1.77;63.76;96629.28;5011945;28;20037;-64
2022/01/19 07:29:16;;;;;;;11.55;6.93;;;;;;;-1.67;62.76;96638.66;5011639;28;20545;-53
2022/01/19 07:31:44;;;;;;;14.95;6.53;;;;;;;-1.65;62.78;96637.84;5014588;28;20049;-61
2022/01/19 07:34:13;;;;;;;13.75;6.40;;;;;;;-1.63;62.16;96634.47;5007991;28;20040;-58
2022/01/19 07:36:39;;;;;;;14.25;6.47;;;;;;;-1.56;62.77;96637.91;5005817;28;20022;-60
2022/01/19 07:39:14;;;;;;;14.90;6.45;;;;;;;-1.42;61.94;96643.13;5007724;28;20022;-59
2022/01/19 07:41:42;;;;;;;9.32;5.38;;;;;;;-1.50;62.29;96638.00;4998089;28;20036;-59
2022/01/19 07:44:07;;;;;;;13.10;7.07;;;;;;;-1.75;61.36;96583.78;5027405;28;20041;-59
2022/01/19 07:46:33;;;;;;;10.95;6.78;;;;;;;-1.34;61.18;96634.78;5009202;28;20049;-62
2022/01/19 07:49:00;;;;;;;15.40;9.15;;;;;;;-1.20;60.77;96642.47;5006541;28;20057;-59
2022/01/19 07:51:26;;;;;;;14.25;6.72;;;;;;;-1.23;60.93;96639.06;5006102;28;20034;-61
2022/01/19 07:53:53;;;;;;;12.45;7.22;;;;;;;-1.06;60.91;96635.03;5007616;28;20045;-61
2022/01/19 07:56:18;;;;;;;14.35;8.70;;;;;;;-0.93;59.69;96628.38;4974790;28;20034;-61
2022/01/19 07:58:44;;;;;;;16.58;7.97;;;;;;;-1.51;59.07;96540.13;4970155;28;20042;-63
2022/01/19 08:01:12;;;;;;;14.18;7.80;;;;;;;-0.96;58.88;96621.59;4987907;28;20050;-60
2022/01/19 08:03:38;;;;;;;11.27;6.32;;;;;;;-0.69;58.98;96642.03;4987197;28;20109;-60
2022/01/19 08:06:08;;;;;;;12.50;8.27;;;;;;;-0.77;58.76;96626.78;4988442;28;20128;-61
2022/01/19 08:08:35;;;;;;;15.85;8.07;;;;;;;-0.53;58.38;96637.94;4987461;28;20509;-61
2022/01/19 08:11:11;;;;;;;13.35;7.43;;;;;;;-0.34;58.13;96643.94;4987616;28;20053;-59
2022/01/19 08:13:38;;;;;;;10.63;6.10;;;;;;;-0.42;56.51;96626.19;4969769;28;20165;-60
2022/01/19 08:16:09;;;;;;;13.93;7.28;;;;;;;-0.36;56.96;96631.28;4989981;28;20069;-59
2022/01/19 08:18:37;;;;;;;15.18;6.80;;;;;;;-0.21;57.10;96622.94;4991856;28;20097;-60
2022/01/19 08:21:04;;;;;;;13.30;7.95;;;;;;;-0.23;56.85;96620.38;4991893;28;20061;-62
2022/01/19 08:23:30;;;;;;;16.35;9.43;;;;;;;-0.02;56.05;96621.31;4991376;28;20371;-61
2022/01/19 08:25:56;;;;;;;13.82;7.32;;;;;;;0.31;55.31;96630.75;5001846;28;20032;-61
2022/01/19 08:28:24;;;;;;;18.00;8.60;;;;;;;1.29;53.48;96611.34;5008538;28;20493;-60
2022/01/19 08:30:56;;;;;;;14.25;8.38;;;;;;;3.79;46.31;96600.53;5010918;28;20469;-60
2022/01/19 08:33:22;;;;;;;;;;;;;;;4.50;42.39;96603.94;5011481;28;20099;-59
2022/01/19 08:35:51;;;;;;;13.05;6.32;;;;;;;4.24;41.96;96611.03;5010181;28;19917;-63
2022/01/19 08:38:18;;;;;;;14.57;7.95;;;;;;;3.83;43.12;96612.38;5010199;28;20049;-60
2022/01/19 08:40:50;;;;;;;10.00;6.03;;;;;;;3.12;45.18;96619.88;5009346;28;20168;-62
2022/01/19 08:43:19;;;;;;;10.60;5.97;;;;;;;3.22;42.71;96583.25;5009016;28;20066;-62
2022/01/19 08:45:46;;;;;;;7.93;5.30;;;;;;;2.13;45.95;96607.75;5008948;28;20481;-61
2022/01/19 08:48:16;;;;;;;12.18;6.43;;;;;;;1.48;48.13;96591.84;5009600;28;20080;-60
2022/01/19 08:50:42;;;;;;;11.77;6.38;;;;;;;0.61;49.65;96562.25;5009500;28;20042;-60
2022/01/19 08:53:13;;;;;;;13.07;5.93;;;;;;;0.16;51.81;96590.94;5008313;28;20038;-61
2022/01/19 08:55:42;;;;;;;13.38;7.38;;;;;;;0.61;51.31;96613.00;5009569;28;20086;-61
2022/01/19 08:58:13;;;;;;;8.80;5.35;;;;;;;0.35;51.18;96614.66;5010275;28;20062;-61
2022/01/19 09:00:44;;;;;;;9.40;6.00;;;;;;;0.29;52.17;96623.94;5009305;28;20053;-61
2022/01/19 09:03:10;;;;;;;11.53;6.50;;;;;;;0.27;52.00;96605.34;5010384;28;20369;-62
2022/01/19 09:05:37;;;;;;;9.40;5.47;;;;;;;0.24;51.95;96598.56;5010588;28;20281;-60
2022/01/19 09:08:05;;;;;;;10.93;5.95;;;;;;;0.60;51.96;96611.34;5009437;28;20518;-64
2022/01/19 09:10:40;;;;;;;11.98;6.55;;;;;;;0.86;50.66;96604.59;5008408;28;20045;-62
2022/01/19 09:13:06;;;;;;;16.83;8.93;;;;;;;0.67;50.32;96580.03;5010614;28;20037;-62
2022/01/19 09:15:38;;;;;;;14.15;5.55;;;;;;;0.66;50.29;96593.59;5010272;28;20161;-60
2022/01/19 09:18:13;;;;;;;15.27;8.70;;;;;;;1.17;49.47;96598.66;5010276;28;20033;-62
2022/01/19 09:20:40;;;;;;;16.60;7.10;;;;;;;1.80;46.41;96560.38;5008358;28;20040;-63
2022/01/19 09:23:13;;;;;;;14.63;7.93;;;;;;;4.31;42.72;96593.09;5009767;28;20037;-62
2022/01/19 09:25:40;;;;;;;15.07;8.35;;;;;;;5.75;37.22;96541.31;4999209;28;20506;-62
2022/01/19 09:28:09;;;;;;;15.38;8.00;;;;;;;6.88;35.40;96564.56;4994660;28;20030;-60
2022/01/19 09:30:40;;;;;;;15.85;6.95;;;;;;;9.68;29.84;96522.13;5008856;28;20034;-62
2022/01/19 09:33:09;;;;;;;12.90;7.28;;;;;;;12.26;26.89;96531.56;5008864;28;20116;-62
2022/01/19 09:38:29;;;;;;;14.15;7.78;;;;;;;14.88;23.23;96520.13;5009923;28;20056;-64
2022/01/19 09:40:57;;;;;;;12.15;7.05;;;;;;;16.68;20.65;96519.00;4997885;28;20121;-62
2022/01/19 09:43:26;;;;;;;11.02;6.65;;;;;;;16.02;20.58;96500.53;4989672;28;20580;-62
2022/01/19 09:45:58;;;;;;;9.40;6.03;;;;;;;16.14;20.00;96489.34;4989845;28;20026;-60
2022/01/19 09:48:33;;;;;;;9.60;6.30;;;;;;;16.13;20.15;96507.66;4988986;28;20579;-63
2022/01/19 09:51:02;;;;;;;12.85;6.72;;;;;;;15.34;20.82;96504.50;5000038;28;20050;-62
2022/01/19 09:53:33;;;;;;;8.43;6.40;;;;;;;15.55;20.57;96492.00;5009646;28;20034;-63
2022/01/19 09:56:04;;;;;;;11.32;5.63;;;;;;;16.20;19.70;96456.91;4996900;28;20039;-62
2022/01/19 09:58:34;;;;;;;12.88;6.28;;;;;;;16.05;20.14;96486.47;5002233;28;20609;-62
2022/01/19 10:01:08;;;;;;;11.35;6.75;;;;;;;16.51;19.92;96476.63;4988829;28;20417;-62
2022/01/19 10:03:36;;;;;;;13.70;7.97;;;;;;;15.62;20.51;96482.91;4988291;28;20144;-62
2022/01/19 10:06:14;;;;;;;16.10;7.75;;;;;;;16.03;20.18;96493.53;4989787;28;20109;-62
2022/01/19 10:08:47;;;;;;;12.85;7.63;;;;;;;16.20;20.30;96484.69;4988666;28;20042;-59
2022/01/19 10:17:06;;;;;;;12.45;8.13;;;;;;;17.62;18.49;96479.00;5009293;28;20049;-63
2022/01/19 10:19:51;;;;;;;12.13;8.05;;;;;;;17.36;18.35;96480.75;5005450;28;20045;-65
2022/01/19 10:22:27;;;;;;;10.60;6.53;;;;;;;17.06;18.79;96472.25;5000988;28;20046;-64
2022/01/19 10:25:07;;;;;;;15.38;6.95;;;;;;;17.02;18.80;96438.66;4980402;28;20038;-61
2022/01/19 10:27:45;;;;;;;11.77;6.88;;;;;;;17.93;17.98;96467.31;4989033;28;20029;-63
2022/01/19 10:30:23;;;;;;;10.82;6.28;;;;;;;19.28;16.96;96472.47;5004017;28;20048;-60
2022/01/19 10:32:55;;;;;;;12.75;8.75;;;;;;;19.10;16.89;96450.28;5007375;28;20095;-61
2022/01/19 10:35:38;;;;;;;12.40;7.53;;;;;;;19.02;17.00;96465.69;4988425;28;20493;-62
2022/01/19 10:38:14;;;;;;;18.10;7.90;;;;;;;18.29;17.60;96464.84;4989039;28;20409;-63
2022/01/19 10:41:05;;;;;;;12.40;7.38;;;;;;;19.03;17.13;96459.53;4997041;28;20018;-63
2022/01/19 10:43:37;;;;;;;10.30;7.17;;;;;;;20.12;16.12;96443.41;5008602;28;20124;-64
2022/01/19 10:46:33;;;;;;;17.17;9.20;;;;;;;20.17;16.62;96438.63;5007610;28;20281;-61
2022/01/19 10:49:10;;;;;;;12.10;7.43;;;;;;;19.34;16.47;96428.47;5007976;28;20058;-62
2022/01/19 10:51:44;;;;;;;15.43;7.93;;;;;;;19.63;16.49;96421.84;5002697;28;20045;-62
2022/01/19 10:54:20;;;;;;;11.45;7.30;;;;;;;19.65;16.50;96400.81;5008926;28;20049;-60
2022/01/19 10:56:48;;;;;;;10.50;6.60;;;;;;;19.37;16.48;96413.38;5006973;28;20057;-60
2022/01/19 10:59:19;;;;;;;14.70;7.22;;;;;;;18.94;16.81;96395.72;5010958;28;20042;-61
2022/01/19 11:01:57;;;;;;;12.32;7.63;;;;;;;18.91;17.19;96412.44;5024402;28;20184;-65
2022/01/19 11:04:32;;;;;;;11.85;6.50;;;;;;;17.93;17.67;96409.06;5023723;28;20032;-63
2022/01/19 11:06:59;;;;;;;10.88;6.28;;;;;;;17.03;18.69;96404.69;5024786;28;20025;-61
2022/01/19 11:09:31;;;;;;;9.73;6.30;;;;;;;17.62;17.93;96401.56;5025013;28;20193;-67
2022/01/19 11:12:05;;;;;;;12.98;7.13;;;;;;;16.76;18.75;96372.63;5014628;28;20041;-62
2022/01/19 11:14:32;;;;;;;13.50;7.70;;;;;;;16.93;19.04;96387.19;5005393;28;20428;-59
2022/01/19 11:16:58;;;;;;;12.70;7.70;;;;;;;17.35;18.82;96356.53;5019887;28;20520;-61
2022/01/19 11:19:28;;;;;;;15.38;7.90;;;;;;;17.73;18.05;96330.41;5015439;28;20878;-61
2022/01/19 11:22:16;;;;;;;12.35;7.15;;;;;;;18.33;17.63;96373.13;5024685;28;20464;-60
2022/01/19 11:24:51;;;;;;;11.77;6.93;;;;;;;17.76;18.25;96369.31;5024167;28;20065;-59
2022/01/19 11:27:18;;;;;;;14.15;9.43;;;;;;;18.41;17.58;96367.31;4987395;28;20093;-63
2022/01/19 11:30:09;;;;;;;13.40;8.80;;;;;;;18.26;17.96;96345.78;4987383;28;20049;-62
2022/01/19 11:32:41;;;;;;;13.68;8.38;;;;;;;18.27;17.98;96363.13;5001403;28;20460;-65
2022/01/19 11:35:12;;;;;;;20.00;13.38;;;;;;;18.53;17.60;96363.00;5005978;28;20404;-64
2022/01/19 11:37:43;;;;;;;16.85;10.90;;;;;;;19.10;17.17;96369.22;5007855;28;20417;-63
2022/01/19 11:40:18;;;;;;;15.05;7.55;;;;;;;20.08;16.25;96363.41;5006813;28;20037;-61
2022/01/19 11:43:10;;;;;;;12.45;9.07;;;;;;;19.46;16.52;96352.53;5007697;28;20084;-62
2022/01/19 11:45:40;;;;;;;14.40;8.40;;;;;;;19.46;16.41;96354.28;5007712;28;20041;-61
2022/01/19 11:48:18;;;;;;;15.88;8.95;;;;;;;20.01;15.88;96351.78;5005460;28;20049;-62
2022/01/19 11:50:50;;;;;;;14.43;8.48;;;;;;;19.75;16.20;96348.59;5009538;28;20059;-60
2022/01/19 11:53:19;;;;;;;17.23;8.05;;;;;;;20.08;16.21;96318.09;5011149;28;20115;-63
2022/01/19 11:56:10;;;;;;;14.80;8.90;;;;;;;19.56;16.49;96341.31;5000862;28;20049;-61
2022/01/19 11:58:36;;;;;;;14.90;9.48;;;;;;;19.78;16.43;96332.66;4991550;28;20124;-63
2022/01/19 12:01:23;;;;;;;13.70;9.00;;;;;;;19.05;17.05;96335.63;4992215;28;20078;-63
2022/01/19 12:03:50;;;;;;;17.15;10.65;;;;;;;18.97;16.69;96342.34;4990584;28;20097;-63
2022/01/19 12:06:37;;;;;;;14.45;8.15;;;;;;;19.62;16.79;96323.38;4973748;28;20108;-62
2022/01/19 12:09:12;;;;;;;14.93;9.35;;;;;;;19.32;16.95;96331.84;4991550;28;20061;-62
2022/01/19 12:11:48;;;;;;;14.23;8.10;;;;;;;18.90;17.02;96328.94;5006880;28;20565;-63
2022/01/19 12:17:25;;;;;;;13.77;7.93;;;;;;;19.32;16.79;96323.16;5011264;28;20431;-61
2022/01/19 12:19:52;;;;;;;15.77;9.45;;;;;;;19.01;17.23;96308.03;5003452;28;20036;-65
2022/01/19 12:22:28;;;;;;;14.50;8.35;;;;;;;19.34;17.19;96303.78;5011186;28;20117;-64
2022/01/19 12:24:56;;;;;;;14.45;9.55;;;;;;;18.63;17.73;96284.78;5000154;28;20057;-61
2022/01/19 12:27:35;;;;;;;12.00;7.60;;;;;;;17.95;17.80;96308.84;4991252;28;20038;-65
2022/01/19 12:30:16;;;;;;;13.85;8.63;;;;;;;18.13;18.21;96311.91;4991493;28;20037;-61
2022/01/19 12:32:57;;;;;;;13.27;8.65;;;;;;;18.04;18.38;96309.97;4991551;28;20038;-60
2022/01/19 12:35:35;;;;;;;13.77;8.18;;;;;;;17.44;18.69;96307.19;4988975;28;20045;-61
2022/01/19 12:38:06;;;;;;;11.50;8.65;;;;;;;18.08;18.22;96295.75;4973731;28;20043;-60
2022/01/19 12:40:40;;;;;;;16.60;9.57;;;;;;;18.23;18.04;96272.06;4996895;28;20485;-63
2022/01/19 12:43:13;;;;;;;15.30;9.30;;;;;;;17.41;19.09;96290.94;4992483;28;20132;-63
2022/01/19 12:46:13;;;;;;;;;;;;;;;;;;;;;
2022/01/19 12:49:28;;;;;;;14.43;8.43;;;;;;;18.71;17.71;96282.44;4975499;28;20050;-62
2022/01/19 12:52:31;;;;;;;18.17;9.40;;;;;;;17.43;18.67;96287.28;5010850;28;20122;-62
2022/01/19 12:55:19;;;;;;;14.27;7.90;;;;;;;18.06;18.08;96274.16;5008535;28;20048;-60
2022/01/19 12:58:33;;;;;;;18.40;9.63;;;;;;;17.86;19.11;96246.88;5010653;28;20025;-61
2022/01/19 13:01:32;;;;;;;;;;;;;;;;;;;;;
2022/01/19 13:04:34;;;;;;;13.70;9.50;;;;;;;16.47;19.82;96266.88;4992054;28;20038;-66
2022/01/19 13:07:26;;;;;;;;;;;;;;;16.14;20.25;96267.34;4976161;28;20045;-67
2022/01/19 13:10:14;;;;;;;14.38;8.63;;;;;;;17.18;19.55;96251.66;5006582;28;19913;-66
2022/01/19 13:12:55;;;;;;;12.90;8.68;;;;;;;17.20;19.37;96243.72;5008441;28;20030;-67
2022/01/19 13:15:22;;;;;;;17.90;9.13;;;;;;;15.80;20.38;96220.91;5009200;28;20046;-69
2022/01/19 13:17:52;;;;;;;13.38;8.68;;;;;;;16.37;20.16;96236.38;5010020;28;20042;-64
2022/01/19 13:20:22;;;;;;;12.93;9.07;;;;;;;15.23;21.39;96229.72;5010321;28;20037;-67
2022/01/19 13:22:57;;;;;;;19.90;9.93;;;;;;;15.83;20.61;96222.50;5008365;28;20456;-69
2022/01/19 13:25:29;;;;;;;16.98;9.30;;;;;;;15.77;20.39;96212.50;5008706;28;20315;-68
2022/01/19 13:27:58;;;;;;;19.08;9.80;;;;;;;15.60;20.83;96197.94;5009787;28;20057;-65
2022/01/19 13:30:31;;;;;;;18.65;8.57;;;;;;;14.91;21.10;96194.50;5009963;28;20394;-66
2022/01/19 13:32:59;;;;;;;18.52;9.63;;;;;;;14.71;21.55;96230.31;5008611;28;20080;-69
2022/01/19 13:35:34;;;;;;;16.70;8.77;;;;;;;11.56;25.17;96212.59;5007573;28;20366;-67
2022/01/19 13:38:12;;;;;;;18.05;10.27;;;;;;;9.49;27.90;96215.50;5008728;28;20045;-65
2022/01/19 13:40:41;;;;;;;14.43;9.68;;;;;;;8.56;30.00;96256.69;5009419;28;20486;-67
2022/01/19 13:43:16;;;;;;;19.20;9.73;;;;;;;7.76;31.88;96260.19;5009594;28;20599;-66
2022/01/19 13:45:49;;;;;;;15.80;9.18;;;;;;;6.88;33.16;96242.31;5009749;28;20042;-66
2022/01/19 13:48:35;;;;;;;17.30;9.13;;;;;;;6.27;34.85;96254.28;5008412;28;20505;-66
2022/01/19 13:51:10;;;;;;;16.10;9.35;;;;;;;5.78;36.02;96252.03;5002525;28;20045;-66
2022/01/19 13:53:46;;;;;;;14.45;8.35;;;;;;;5.57;36.83;96255.09;5008945;28;20080;-67
2022/01/19 13:56:26;;;;;;;18.45;9.35;;;;;;;5.09;37.50;96246.78;5009874;28;20048;-66
2022/01/19 13:59:11;;;;;;;14.80;9.05;;;;;;;4.70;38.46;96235.69;5007216;28;20141;-67
2022/01/19 14:01:52;;;;;;;18.40;9.27;;;;;;;4.56;39.03;96257.22;5006966;28;20050;-63
2022/01/19 14:04:26;;;;;;;12.65;8.15;;;;;;;4.35;39.45;96253.38;5008309;28;20429;-66
2022/01/19 14:07:05;;;;;;;14.77;8.48;;;;;;;4.15;39.65;96238.44;5009362;28;20064;-68
2022/01/19 14:09:40;;;;;;;16.88;10.10;;;;;;;4.09;40.08;96245.34;5008829;28;20029;-66
2022/01/19 14:12:10;;;;;;;16.83;11.15;;;;;;;3.92;40.80;96253.28;5007738;28;20029;-66
2022/01/19 14:14:42;;;;;;;14.15;8.57;;;;;;;3.93;40.66;96250.72;5009013;28;20478;-67
2022/01/19 14:17:34;;;;;;;16.05;9.18;;;;;;;3.77;41.33;96252.69;5008815;28;20030;-67
2022/01/19 14:20:04;;;;;;;;;;;;;;;3.63;41.44;96250.34;5010007;28;20045;-68